createdAt,value
2022-11-29T00:00:02.737Z,4.51
2022-11-29T00:00:59.017Z,4.50
2022-11-29T00:01:58.107Z,4.44
2022-11-29T00:02:58.132Z,4.41
2022-11-29T00:03:57.958Z,4.50
2022-11-29T00:04:57.966Z,4.50
2022-11-29T00:05:57.953Z,4.48
2022-11-29T00:06:57.949Z,4.52
2022-11-29T00:07:57.936Z,4.59
2022-11-29T00:08:57.901Z,4.58
2022-11-29T00:09:57.890Z,4.55
2022-11-29T00:10:57.877Z,4.54
2022-11-29T00:11:57.884Z,4.60
2022-11-29T00:12:57.900Z,4.62
2022-11-29T00:13:57.862Z,4.58
2022-11-29T00:14:57.832Z,4.55
2022-11-29T00:15:57.824Z,4.59
2022-11-29T00:16:57.855Z,4.60
2022-11-29T00:17:57.831Z,4.60
2022-11-29T00:18:57.825Z,4.62
2022-11-29T00:19:57.778Z,4.58
2022-11-29T00:20:57.787Z,4.54
2022-11-29T00:21:57.757Z,4.45
2022-11-29T00:22:57.761Z,4.45
2022-11-29T00:23:57.738Z,4.50
2022-11-29T00:24:57.755Z,4.54
2022-11-29T00:25:57.712Z,4.54
2022-11-29T00:26:57.698Z,4.51
2022-11-29T00:27:57.712Z,4.59
2022-11-29T00:28:57.694Z,4.58
2022-11-29T00:29:57.681Z,4.59
2022-11-29T00:30:57.721Z,4.59
2022-11-29T00:31:57.683Z,4.59
2022-11-29T00:32:57.631Z,4.59
2022-11-29T00:33:57.627Z,4.58
2022-11-29T00:34:59.600Z,4.58
2022-11-29T00:35:57.615Z,4.62
2022-11-29T00:36:57.640Z,4.55
2022-11-29T00:37:57.576Z,4.63
2022-11-29T00:38:57.565Z,4.59
2022-11-29T00:39:57.565Z,4.60
2022-11-29T00:40:57.552Z,4.55
2022-11-29T00:41:57.554Z,4.54
2022-11-29T00:42:57.564Z,4.55
2022-11-29T00:43:57.510Z,4.54
2022-11-29T00:44:57.499Z,4.59
2022-11-29T00:45:57.558Z,4.58
2022-11-29T00:46:57.488Z,4.55
2022-11-29T00:47:57.487Z,4.58
2022-11-29T00:48:57.466Z,4.63
2022-11-29T00:49:57.445Z,4.58
2022-11-29T00:50:57.474Z,4.59
2022-11-29T00:51:57.442Z,4.59
2022-11-29T00:52:57.443Z,4.67
2022-11-29T00:53:57.398Z,4.66
2022-11-29T00:54:57.405Z,4.65
2022-11-29T00:55:57.387Z,4.65
2022-11-29T00:56:57.385Z,4.66
2022-11-29T00:57:57.359Z,4.69
2022-11-29T00:58:57.357Z,4.73
2022-11-29T00:59:57.331Z,4.67
2022-11-29T01:00:57.374Z,4.69
2022-11-29T01:01:57.375Z,4.67
2022-11-29T01:02:57.322Z,4.67
2022-11-29T01:03:57.298Z,4.73
2022-11-29T01:04:57.299Z,4.75
2022-11-29T01:05:57.267Z,4.77
2022-11-29T01:06:57.251Z,4.73
2022-11-29T01:07:57.385Z,4.73
2022-11-29T01:08:57.245Z,4.77
2022-11-29T01:09:57.238Z,4.77
2022-11-29T01:10:57.206Z,4.80
2022-11-29T01:11:57.212Z,4.84
2022-11-29T01:12:57.184Z,4.77
2022-11-29T01:13:57.188Z,4.75
2022-11-29T01:14:57.212Z,4.78
2022-11-29T01:15:57.164Z,4.73
2022-11-29T01:16:57.149Z,4.75
2022-11-29T01:17:57.130Z,4.77
2022-11-29T01:18:57.118Z,4.77
2022-11-29T01:19:57.139Z,4.80
2022-11-29T01:20:57.122Z,4.77
2022-11-29T01:21:57.111Z,4.75
2022-11-29T01:22:57.073Z,4.67
2022-11-29T01:23:57.063Z,4.66
2022-11-29T01:24:57.107Z,4.59
2022-11-29T01:25:57.966Z,4.59
2022-11-29T01:26:57.079Z,4.54
2022-11-29T01:27:57.041Z,4.54
2022-11-29T01:28:57.006Z,4.58
2022-11-29T01:29:56.996Z,4.55
2022-11-29T01:30:57.021Z,4.54
2022-11-29T01:31:56.988Z,4.50
2022-11-29T01:32:57.007Z,4.59
2022-11-29T01:33:56.981Z,4.60
2022-11-29T01:34:56.937Z,4.51
2022-11-29T01:35:56.929Z,4.54
2022-11-29T01:36:56.917Z,4.54
2022-11-29T01:37:56.918Z,4.48
2022-11-29T01:38:56.941Z,4.42
2022-11-29T01:39:56.903Z,4.47
2022-11-29T01:40:56.889Z,4.44
2022-11-29T01:41:56.872Z,4.41
2022-11-29T01:42:56.850Z,4.58
2022-11-29T01:43:56.844Z,4.41
2022-11-29T01:44:56.875Z,4.37
2022-11-29T01:45:56.889Z,4.50
2022-11-29T01:46:56.804Z,4.45
2022-11-29T01:47:56.808Z,4.45
2022-11-29T01:48:56.791Z,4.47
2022-11-29T01:49:56.797Z,4.41
2022-11-29T01:50:56.797Z,4.34
2022-11-29T01:51:56.764Z,4.45
2022-11-29T01:52:56.764Z,4.34
2022-11-29T01:53:56.725Z,4.45
2022-11-29T01:54:56.729Z,4.33
2022-11-29T01:55:56.799Z,4.32
2022-11-29T01:56:56.734Z,4.37
2022-11-29T01:57:56.696Z,4.32
2022-11-29T01:58:56.679Z,4.41
2022-11-29T01:59:56.662Z,4.32
2022-11-29T02:00:56.705Z,4.29
2022-11-29T02:01:56.636Z,4.34
2022-11-29T02:02:56.695Z,4.36
2022-11-29T02:03:56.634Z,4.34
2022-11-29T02:04:56.626Z,4.36
2022-11-29T02:05:56.600Z,4.45
2022-11-29T02:06:56.594Z,4.40
2022-11-29T02:07:56.642Z,4.42
2022-11-29T02:08:56.573Z,4.33
2022-11-29T02:09:56.548Z,4.45
2022-11-29T02:10:56.574Z,4.50
2022-11-29T02:11:56.550Z,4.42
2022-11-29T02:12:56.532Z,4.44
2022-11-29T02:13:56.501Z,4.51
2022-11-29T02:14:56.492Z,4.52
2022-11-29T02:15:56.540Z,4.45
2022-11-29T02:16:56.884Z,4.59
2022-11-29T02:17:56.464Z,4.58
2022-11-29T02:18:56.455Z,4.54
2022-11-29T02:19:56.434Z,4.58
2022-11-29T02:20:56.446Z,4.62
2022-11-29T02:21:56.426Z,4.63
2022-11-29T02:22:56.423Z,4.60
2022-11-29T02:23:56.404Z,4.59
2022-11-29T02:24:56.380Z,4.58
2022-11-29T02:25:56.385Z,4.60
2022-11-29T02:26:56.359Z,4.58
2022-11-29T02:27:56.374Z,4.59
2022-11-29T02:28:56.375Z,4.59
2022-11-29T02:29:56.321Z,4.59
2022-11-29T02:30:56.361Z,4.63
2022-11-29T02:31:56.301Z,4.58
2022-11-29T02:32:56.323Z,4.55
2022-11-29T02:33:56.282Z,4.60
2022-11-29T02:34:56.298Z,4.60
2022-11-29T02:35:56.255Z,4.54
2022-11-29T02:36:56.247Z,4.51
2022-11-29T02:37:56.264Z,4.60
2022-11-29T02:38:56.235Z,4.58
2022-11-29T02:39:56.223Z,4.54
2022-11-29T02:40:56.232Z,4.51
2022-11-29T02:41:56.229Z,4.51
2022-11-29T02:42:57.099Z,4.54
2022-11-29T02:43:56.169Z,4.47
2022-11-29T02:44:56.177Z,4.50
2022-11-29T02:45:56.184Z,4.44
2022-11-29T02:46:56.173Z,4.52
2022-11-29T02:47:56.121Z,4.47
2022-11-29T02:48:56.128Z,4.51
2022-11-29T02:49:56.111Z,4.42
2022-11-29T02:50:56.090Z,4.42
2022-11-29T02:51:56.097Z,4.42
2022-11-29T02:52:56.116Z,4.37
2022-11-29T02:53:56.056Z,4.47
2022-11-29T02:54:56.063Z,4.42
2022-11-29T02:55:56.043Z,4.48
2022-11-29T02:56:56.057Z,4.44
2022-11-29T02:57:56.010Z,4.42
2022-11-29T02:58:56.044Z,4.37
2022-11-29T02:59:55.986Z,4.32
2022-11-29T03:00:56.000Z,4.36
2022-11-29T03:01:56.029Z,4.40
2022-11-29T03:02:56.085Z,4.33
2022-11-29T03:03:55.941Z,4.33
2022-11-29T03:04:55.953Z,4.33
2022-11-29T03:05:55.920Z,4.47
2022-11-29T03:06:55.941Z,4.33
2022-11-29T03:07:56.011Z,4.36
2022-11-29T03:08:55.902Z,4.34
2022-11-29T03:09:55.886Z,4.40
2022-11-29T03:10:55.864Z,4.32
2022-11-29T03:11:55.889Z,4.34
2022-11-29T03:12:55.859Z,4.36
2022-11-29T03:13:55.841Z,4.40
2022-11-29T03:14:55.838Z,4.42
2022-11-29T03:15:55.859Z,4.32
2022-11-29T03:16:55.829Z,4.33
2022-11-29T03:17:55.804Z,4.36
2022-11-29T03:18:55.775Z,4.32
2022-11-29T03:19:55.778Z,4.34
2022-11-29T03:20:55.773Z,4.42
2022-11-29T03:21:55.781Z,4.40
2022-11-29T03:22:55.765Z,4.30
2022-11-29T03:23:55.746Z,4.33
2022-11-29T03:24:55.710Z,4.42
2022-11-29T03:25:55.706Z,4.44
2022-11-29T03:26:55.710Z,4.45
2022-11-29T03:27:55.698Z,4.45
2022-11-29T03:28:55.664Z,4.40
2022-11-29T03:29:55.686Z,4.48
2022-11-29T03:30:55.732Z,4.44
2022-11-29T03:31:55.649Z,4.42
2022-11-29T03:32:55.653Z,4.33
2022-11-29T03:33:55.606Z,4.45
2022-11-29T03:34:57.366Z,4.41
2022-11-29T03:36:03.524Z,4.34
2022-11-29T03:36:55.593Z,4.47
2022-11-29T03:37:55.589Z,4.45
2022-11-29T03:38:55.556Z,4.45
2022-11-29T03:39:55.551Z,4.40
2022-11-29T03:40:56.042Z,4.36
2022-11-29T03:41:55.521Z,4.30
2022-11-29T03:42:55.545Z,4.32
2022-11-29T03:43:55.500Z,4.45
2022-11-29T03:44:55.512Z,4.36
2022-11-29T03:45:55.549Z,4.37
2022-11-29T03:46:55.498Z,4.37
2022-11-29T03:47:55.468Z,4.36
2022-11-29T03:48:55.461Z,4.36
2022-11-29T03:49:55.473Z,4.34
2022-11-29T03:50:55.449Z,4.32
2022-11-29T03:51:55.446Z,4.34
2022-11-29T03:52:55.399Z,4.36
2022-11-29T03:53:55.406Z,4.29
2022-11-29T03:54:55.373Z,4.27
2022-11-29T03:55:55.385Z,4.34
2022-11-29T03:56:55.360Z,4.27
2022-11-29T03:57:55.346Z,4.32
2022-11-29T03:58:55.331Z,4.29
2022-11-29T03:59:55.344Z,4.27
2022-11-29T04:00:55.319Z,4.33
2022-11-29T04:01:55.358Z,4.30
2022-11-29T04:02:55.351Z,4.32
2022-11-29T04:03:55.306Z,4.29
2022-11-29T04:04:55.292Z,4.24
2022-11-29T04:05:55.246Z,4.27
2022-11-29T04:06:55.251Z,4.20
2022-11-29T04:07:55.291Z,4.16
2022-11-29T04:08:55.238Z,4.20
2022-11-29T04:09:55.266Z,4.26
2022-11-29T04:10:55.212Z,4.22
2022-11-29T04:11:55.240Z,4.33
2022-11-29T04:12:55.171Z,4.32
2022-11-29T04:13:55.171Z,4.26
2022-11-29T04:14:55.177Z,4.29
2022-11-29T04:15:55.225Z,4.29
2022-11-29T04:16:55.151Z,4.32
2022-11-29T04:17:55.117Z,4.26
2022-11-29T04:18:55.105Z,4.24
2022-11-29T04:19:55.114Z,4.32
2022-11-29T04:20:55.138Z,4.27
2022-11-29T04:21:55.138Z,4.33
2022-11-29T04:22:55.091Z,4.40
2022-11-29T04:23:55.060Z,4.30
2022-11-29T04:24:55.044Z,4.40
2022-11-29T04:25:55.086Z,4.34
2022-11-29T04:26:55.018Z,4.36
2022-11-29T04:27:55.075Z,4.33
2022-11-29T04:28:54.992Z,4.42
2022-11-29T04:29:54.979Z,4.37
2022-11-29T04:30:55.049Z,4.30
2022-11-29T04:31:54.988Z,4.37
2022-11-29T04:32:54.954Z,4.37
2022-11-29T04:33:54.972Z,4.37
2022-11-29T04:34:54.967Z,4.36
2022-11-29T04:35:54.913Z,4.34
2022-11-29T04:36:54.942Z,4.36
2022-11-29T04:37:54.926Z,4.36
2022-11-29T04:38:54.933Z,4.42
2022-11-29T04:39:54.900Z,4.33
2022-11-29T04:40:54.866Z,4.40
2022-11-29T04:41:54.851Z,4.32
2022-11-29T04:42:54.839Z,4.41
2022-11-29T04:43:54.866Z,4.33
2022-11-29T04:44:54.832Z,4.33
2022-11-29T04:45:54.842Z,4.36
2022-11-29T04:46:54.807Z,4.42
2022-11-29T04:47:54.793Z,4.45
2022-11-29T04:48:54.792Z,4.34
2022-11-29T04:49:54.804Z,4.44
2022-11-29T04:50:54.770Z,4.47
2022-11-29T04:51:54.787Z,4.45
2022-11-29T04:52:54.762Z,4.42
2022-11-29T04:53:54.713Z,4.45
2022-11-29T04:54:54.716Z,4.34
2022-11-29T04:55:54.702Z,4.44
2022-11-29T04:56:54.709Z,4.41
2022-11-29T04:57:54.735Z,4.44
2022-11-29T04:58:54.666Z,4.50
2022-11-29T04:59:54.671Z,4.45
2022-11-29T05:00:54.634Z,4.50
2022-11-29T05:01:54.691Z,4.36
2022-11-29T05:02:54.652Z,4.41
2022-11-29T05:03:57.193Z,4.40
2022-11-29T05:04:54.601Z,4.41
2022-11-29T05:05:54.593Z,4.45
2022-11-29T05:06:54.614Z,4.47
2022-11-29T05:07:54.634Z,4.34
2022-11-29T05:08:54.567Z,4.48
2022-11-29T05:09:54.590Z,4.50
2022-11-29T05:10:54.523Z,4.47
2022-11-29T05:11:54.546Z,4.33
2022-11-29T05:12:54.542Z,4.47
2022-11-29T05:13:54.511Z,4.33
2022-11-29T05:14:54.487Z,4.37
2022-11-29T05:15:54.547Z,4.47
2022-11-29T05:16:54.468Z,4.45
2022-11-29T05:17:54.443Z,4.36
2022-11-29T05:18:54.450Z,4.36
2022-11-29T05:19:54.421Z,4.45
2022-11-29T05:20:54.453Z,4.40
2022-11-29T05:21:54.432Z,4.40
2022-11-29T05:22:54.429Z,4.47
2022-11-29T05:23:54.380Z,4.40
2022-11-29T05:24:54.407Z,4.41
2022-11-29T05:25:54.358Z,4.41
2022-11-29T05:26:54.391Z,4.44
2022-11-29T05:27:54.330Z,4.42
2022-11-29T05:28:54.337Z,4.47
2022-11-29T05:29:54.338Z,4.41
2022-11-29T05:30:54.356Z,4.42
2022-11-29T05:31:54.337Z,4.48
2022-11-29T05:32:54.364Z,4.45
2022-11-29T05:33:54.266Z,4.41
2022-11-29T05:34:54.256Z,4.42
2022-11-29T05:35:54.268Z,4.41
2022-11-29T05:36:54.260Z,4.37
2022-11-29T05:37:54.266Z,4.47
2022-11-29T05:38:54.220Z,4.44
2022-11-29T05:39:54.207Z,4.45
2022-11-29T05:40:54.213Z,4.50
2022-11-29T05:41:54.211Z,4.45
2022-11-29T05:42:54.211Z,4.54
2022-11-29T05:43:54.172Z,4.51
2022-11-29T05:44:54.142Z,4.54
2022-11-29T05:45:54.144Z,4.52
2022-11-29T05:46:54.131Z,4.63
2022-11-29T05:47:54.140Z,4.51
2022-11-29T05:48:54.132Z,4.58
2022-11-29T05:49:54.092Z,4.54
2022-11-29T05:50:54.079Z,4.54
2022-11-29T05:51:54.064Z,4.55
2022-11-29T05:52:54.095Z,4.51
2022-11-29T05:53:54.086Z,4.51
2022-11-29T05:54:54.042Z,4.55
2022-11-29T05:55:54.084Z,4.55
2022-11-29T05:56:54.055Z,4.58
2022-11-29T05:57:54.000Z,4.63
2022-11-29T05:58:54.000Z,4.62
2022-11-29T05:59:54.024Z,4.58
2022-11-29T06:00:54.010Z,4.58
2022-11-29T06:01:53.991Z,4.58
2022-11-29T06:02:54.007Z,4.52
2022-11-29T06:03:53.940Z,4.55
2022-11-29T06:04:53.970Z,4.54
2022-11-29T06:05:53.956Z,4.55
2022-11-29T06:06:53.903Z,4.58
2022-11-29T06:07:53.940Z,4.55
2022-11-29T06:08:53.875Z,4.63
2022-11-29T06:09:53.920Z,4.55
2022-11-29T06:10:53.888Z,4.55
2022-11-29T06:11:53.909Z,4.62
2022-11-29T06:12:53.911Z,4.62
2022-11-29T06:13:53.896Z,4.60
2022-11-29T06:14:53.907Z,4.63
2022-11-29T06:15:53.979Z,4.65
2022-11-29T06:16:53.839Z,4.67
2022-11-29T06:17:53.856Z,4.66
2022-11-29T06:18:54.102Z,4.58
2022-11-29T06:19:53.801Z,4.62
2022-11-29T06:20:53.749Z,4.60
2022-11-29T06:21:53.745Z,4.69
2022-11-29T06:22:53.754Z,4.78
2022-11-29T06:23:53.757Z,4.73
2022-11-29T06:24:53.699Z,4.69
2022-11-29T06:25:53.778Z,4.69
2022-11-29T06:26:53.679Z,4.73
2022-11-29T06:27:53.702Z,4.77
2022-11-29T06:28:53.721Z,4.78
2022-11-29T06:29:53.698Z,4.75
2022-11-29T06:30:53.626Z,4.73
2022-11-29T06:31:53.621Z,4.82
2022-11-29T06:32:53.618Z,4.75
2022-11-29T06:33:53.638Z,4.75
2022-11-29T06:34:53.583Z,4.78
2022-11-29T06:35:53.572Z,4.75
2022-11-29T06:36:53.580Z,4.67
2022-11-29T06:37:53.561Z,4.75
2022-11-29T06:38:53.567Z,4.77
2022-11-29T06:39:53.571Z,4.77
2022-11-29T06:40:57.290Z,4.72
2022-11-29T06:41:54.538Z,4.72
2022-11-29T06:42:53.492Z,4.69
2022-11-29T06:43:53.498Z,4.65
2022-11-29T06:44:53.487Z,4.63
2022-11-29T06:45:53.515Z,4.69
2022-11-29T06:46:53.482Z,4.69
2022-11-29T06:47:53.451Z,4.70
2022-11-29T06:48:56.585Z,4.69
2022-11-29T06:49:54.429Z,4.73
2022-11-29T06:50:53.439Z,4.75
2022-11-29T06:51:53.413Z,4.70
2022-11-29T06:52:53.381Z,4.72
2022-11-29T06:53:53.389Z,4.72
2022-11-29T06:54:53.370Z,4.77
2022-11-29T06:55:53.377Z,4.78
2022-11-29T06:56:53.336Z,4.77
2022-11-29T06:57:53.338Z,4.77
2022-11-29T06:58:53.316Z,4.70
2022-11-29T06:59:53.303Z,4.69
2022-11-29T07:00:53.409Z,4.62
2022-11-29T07:01:53.324Z,4.66
2022-11-29T07:02:53.268Z,4.67
2022-11-29T07:03:53.264Z,4.65
2022-11-29T07:04:53.275Z,4.59
2022-11-29T07:05:53.264Z,4.65
2022-11-29T07:06:53.236Z,4.65
2022-11-29T07:07:53.306Z,4.59
2022-11-29T07:08:53.202Z,4.62
2022-11-29T07:09:53.228Z,4.65
2022-11-29T07:10:53.233Z,4.69
2022-11-29T07:11:53.182Z,4.69
2022-11-29T07:12:53.180Z,4.72
2022-11-29T07:13:53.148Z,4.69
2022-11-29T07:14:53.177Z,4.66
2022-11-29T07:15:53.202Z,4.69
2022-11-29T07:16:57.150Z,4.69
2022-11-29T07:17:53.118Z,4.75
2022-11-29T07:18:53.114Z,4.70
2022-11-29T07:19:53.121Z,4.69
2022-11-29T07:20:53.066Z,4.70
2022-11-29T07:21:53.077Z,4.75
2022-11-29T07:22:53.053Z,4.72
2022-11-29T07:23:53.051Z,4.78
2022-11-29T07:24:53.174Z,4.80
2022-11-29T07:25:53.013Z,4.67
2022-11-29T07:26:59.260Z,4.75
2022-11-29T07:27:54.017Z,4.72
2022-11-29T07:28:52.990Z,4.73
2022-11-29T07:29:52.997Z,4.77
2022-11-29T07:30:52.955Z,4.75
2022-11-29T07:31:52.990Z,4.82
2022-11-29T07:32:58.739Z,4.75
2022-11-29T07:33:53.950Z,4.77
2022-11-29T07:34:52.930Z,4.75
2022-11-29T07:35:52.934Z,4.77
2022-11-29T07:36:52.890Z,4.75
2022-11-29T07:37:52.880Z,4.77
2022-11-29T07:38:52.881Z,4.75
2022-11-29T07:39:52.872Z,4.78
2022-11-29T07:40:52.871Z,4.77
2022-11-29T07:41:52.834Z,4.85
2022-11-29T07:42:52.822Z,4.73
2022-11-29T07:43:52.811Z,4.89
2022-11-29T07:44:52.799Z,4.91
2022-11-29T07:45:52.823Z,4.91
2022-11-29T07:46:52.825Z,4.88
2022-11-29T07:47:52.860Z,4.96
2022-11-29T07:48:52.772Z,4.88
2022-11-29T07:49:52.752Z,4.85
2022-11-29T07:50:52.733Z,4.97
2022-11-29T07:51:52.731Z,4.89
2022-11-29T07:52:52.759Z,4.94
2022-11-29T07:53:52.698Z,5.03
2022-11-29T07:54:52.687Z,4.96
2022-11-29T07:55:52.689Z,4.91
2022-11-29T07:56:52.673Z,4.91
2022-11-29T07:57:52.680Z,4.94
2022-11-29T07:58:52.688Z,4.96
2022-11-29T07:59:52.636Z,5.02
2022-11-29T08:00:52.673Z,4.94
2022-11-29T08:01:52.636Z,5.10
2022-11-29T08:02:52.612Z,4.96
2022-11-29T08:03:52.619Z,4.96
2022-11-29T08:04:52.622Z,4.99
2022-11-29T08:05:52.566Z,4.92
2022-11-29T08:06:52.562Z,5.02
2022-11-29T08:07:52.614Z,4.85
2022-11-29T08:08:52.553Z,4.88
2022-11-29T08:09:52.524Z,4.86
2022-11-29T08:10:52.566Z,4.88
2022-11-29T08:11:52.499Z,4.86
2022-11-29T08:12:52.502Z,4.96
2022-11-29T08:13:52.514Z,4.88
2022-11-29T08:14:52.479Z,4.91
2022-11-29T08:15:52.453Z,4.86
2022-11-29T08:16:52.456Z,4.99
2022-11-29T08:17:52.432Z,4.96
2022-11-29T08:18:52.453Z,4.99
2022-11-29T08:19:52.432Z,4.99
2022-11-29T08:20:52.412Z,4.88
2022-11-29T08:21:52.385Z,4.99
2022-11-29T08:22:52.385Z,4.94
2022-11-29T08:23:52.382Z,4.99
2022-11-29T08:24:52.355Z,5.02
2022-11-29T08:25:52.362Z,4.99
2022-11-29T08:26:52.328Z,5.03
2022-11-29T08:27:52.319Z,4.96
2022-11-29T08:28:52.346Z,5.02
2022-11-29T08:29:52.310Z,5.00
2022-11-29T08:30:52.295Z,5.04
2022-11-29T08:31:52.319Z,5.03
2022-11-29T08:32:52.314Z,5.06
2022-11-29T08:33:52.271Z,4.99
2022-11-29T08:34:52.256Z,4.96
2022-11-29T08:35:52.274Z,4.94
2022-11-29T08:36:52.261Z,4.96
2022-11-29T08:37:52.205Z,5.03
2022-11-29T08:38:59.250Z,4.99
2022-11-29T08:39:53.204Z,5.09
2022-11-29T08:40:52.192Z,5.07
2022-11-29T08:41:52.174Z,5.13
2022-11-29T08:42:52.161Z,5.10
2022-11-29T08:43:52.141Z,5.12
2022-11-29T08:44:52.133Z,5.15
2022-11-29T08:45:52.223Z,5.17
2022-11-29T08:46:52.143Z,5.20
2022-11-29T08:47:52.111Z,5.15
2022-11-29T08:48:52.102Z,5.18
2022-11-29T08:49:52.075Z,5.18
2022-11-29T08:50:52.060Z,5.17
2022-11-29T08:51:52.087Z,5.20
2022-11-29T08:52:52.055Z,5.15
2022-11-29T08:53:52.067Z,5.21
2022-11-29T08:54:52.039Z,5.20
2022-11-29T08:55:52.011Z,5.21
2022-11-29T08:57:52.998Z,5.25
2022-11-29T08:58:52.001Z,5.24
2022-11-29T08:59:51.997Z,5.24
2022-11-29T09:00:51.955Z,5.22
2022-11-29T09:01:51.999Z,5.28
2022-11-29T09:02:51.969Z,5.31
2022-11-29T09:03:51.944Z,5.33
2022-11-29T09:04:51.919Z,5.31
2022-11-29T09:05:51.926Z,5.36
2022-11-29T09:06:51.879Z,5.35
2022-11-29T09:07:51.932Z,5.35
2022-11-29T09:08:51.885Z,5.42
2022-11-29T09:09:51.869Z,5.38
2022-11-29T09:10:51.857Z,5.36
2022-11-29T09:11:51.863Z,5.31
2022-11-29T09:12:51.813Z,5.33
2022-11-29T09:13:51.805Z,5.38
2022-11-29T09:14:51.807Z,5.33
2022-11-29T09:15:51.812Z,5.33
2022-11-29T09:16:51.839Z,5.42
2022-11-29T09:17:51.790Z,5.35
2022-11-29T09:18:52.241Z,5.30
2022-11-29T09:19:51.765Z,5.33
2022-11-29T09:20:51.724Z,5.39
2022-11-29T09:21:51.731Z,5.45
2022-11-29T09:22:51.701Z,5.33
2022-11-29T09:23:51.707Z,5.38
2022-11-29T09:24:51.714Z,5.35
2022-11-29T09:25:51.681Z,5.42
2022-11-29T09:26:51.661Z,5.48
2022-11-29T09:27:51.657Z,5.43
2022-11-29T09:28:51.636Z,5.42
2022-11-29T09:29:51.673Z,5.56
2022-11-29T09:30:51.637Z,5.43
2022-11-29T09:31:51.662Z,5.48
2022-11-29T09:32:51.600Z,5.53
2022-11-29T09:33:51.612Z,5.54
2022-11-29T09:34:51.581Z,5.57
2022-11-29T09:35:51.572Z,5.49
2022-11-29T09:36:51.627Z,5.56
2022-11-29T09:37:51.566Z,5.57
2022-11-29T09:38:51.527Z,5.63
2022-11-29T09:39:51.514Z,5.58
2022-11-29T09:40:51.536Z,5.58
2022-11-29T09:41:51.515Z,5.68
2022-11-29T09:42:51.497Z,5.75
2022-11-29T09:43:51.472Z,5.61
2022-11-29T09:44:51.467Z,5.72
2022-11-29T09:45:51.505Z,5.65
2022-11-29T09:46:57.208Z,5.67
2022-11-29T09:47:52.478Z,5.74
2022-11-29T09:48:51.426Z,5.64
2022-11-29T09:49:51.411Z,5.74
2022-11-29T09:50:51.424Z,5.63
2022-11-29T09:51:51.380Z,5.71
2022-11-29T09:52:51.366Z,5.68
2022-11-29T09:53:51.393Z,5.65
2022-11-29T09:54:51.343Z,5.64
2022-11-29T09:55:51.355Z,5.67
2022-11-29T09:56:51.336Z,5.65
2022-11-29T09:57:51.311Z,5.60
2022-11-29T09:58:51.298Z,5.60
2022-11-29T09:59:51.307Z,5.57
2022-11-29T10:00:51.374Z,5.58
2022-11-29T10:01:51.282Z,5.57
2022-11-29T10:02:52.180Z,5.53
2022-11-29T10:03:51.247Z,5.54
2022-11-29T10:04:51.261Z,5.57
2022-11-29T10:05:51.263Z,5.58
2022-11-29T10:06:51.225Z,5.61
2022-11-29T10:07:51.308Z,5.56
2022-11-29T10:08:51.185Z,5.67
2022-11-29T10:09:51.197Z,5.64
2022-11-29T10:10:51.194Z,5.74
2022-11-29T10:11:51.170Z,5.72
2022-11-29T10:12:51.173Z,5.72
2022-11-29T10:13:51.131Z,5.76
2022-11-29T10:14:52.556Z,5.72
2022-11-29T10:15:51.137Z,5.78
2022-11-29T10:16:51.208Z,5.68
2022-11-29T10:17:51.106Z,5.68
2022-11-29T10:18:51.094Z,5.75
2022-11-29T10:19:51.062Z,5.75
2022-11-29T10:20:51.072Z,5.72
2022-11-29T10:21:51.066Z,5.67
2022-11-29T10:22:51.030Z,5.61
2022-11-29T10:23:51.041Z,5.65
2022-11-29T10:24:51.006Z,5.67
2022-11-29T10:25:51.034Z,5.71
2022-11-29T10:26:50.986Z,5.74
2022-11-29T10:27:50.983Z,5.65
2022-11-29T10:28:50.984Z,5.58
2022-11-29T10:29:50.977Z,5.65
2022-11-29T10:30:51.002Z,5.68
2022-11-29T10:31:50.926Z,5.65
2022-11-29T10:32:50.918Z,5.76
2022-11-29T10:33:50.930Z,5.76
2022-11-29T10:34:50.905Z,5.75
2022-11-29T10:35:50.904Z,5.81
2022-11-29T10:36:50.882Z,5.81
2022-11-29T10:38:14.549Z,5.89
2022-11-29T10:38:51.880Z,5.79
2022-11-29T10:39:50.837Z,5.90
2022-11-29T10:40:50.845Z,5.83
2022-11-29T10:41:50.814Z,5.85
2022-11-29T10:42:50.821Z,5.91
2022-11-29T10:43:50.815Z,5.86
2022-11-29T10:44:50.816Z,5.94
2022-11-29T10:45:50.889Z,5.85
2022-11-29T10:46:50.785Z,5.91
2022-11-29T10:47:50.747Z,5.85
2022-11-29T10:48:50.747Z,5.82
2022-11-29T10:49:50.725Z,5.78
2022-11-29T10:50:50.714Z,5.81
2022-11-29T10:51:50.745Z,5.81
2022-11-29T10:52:52.062Z,5.82
2022-11-29T10:53:50.679Z,5.79
2022-11-29T10:54:50.681Z,5.93
2022-11-29T10:55:50.666Z,5.86
2022-11-29T10:56:50.673Z,5.94
2022-11-29T10:57:50.656Z,5.93
2022-11-29T10:58:50.625Z,5.91
2022-11-29T10:59:50.628Z,5.91
2022-11-29T11:00:50.800Z,5.93
2022-11-29T11:01:50.687Z,5.96
2022-11-29T11:02:50.587Z,6.01
2022-11-29T11:03:53.045Z,5.96
2022-11-29T11:04:50.594Z,5.96
2022-11-29T11:05:50.576Z,5.94
2022-11-29T11:06:50.564Z,5.85
2022-11-29T11:07:50.560Z,5.90
2022-11-29T11:08:50.527Z,5.93
2022-11-29T11:09:50.534Z,5.94
2022-11-29T11:10:54.528Z,5.96
2022-11-29T11:11:51.494Z,5.93
2022-11-29T11:12:50.489Z,5.91
2022-11-29T11:13:50.472Z,5.96
2022-11-29T11:14:50.456Z,6.04
2022-11-29T11:15:50.430Z,5.99
2022-11-29T11:16:50.504Z,6.01
2022-11-29T11:17:50.435Z,6.00
2022-11-29T11:18:50.429Z,5.99
2022-11-29T11:19:50.414Z,5.99
2022-11-29T11:20:50.400Z,5.99
2022-11-29T11:21:50.364Z,6.09
2022-11-29T11:22:50.355Z,6.15
2022-11-29T11:23:50.374Z,6.11
2022-11-29T11:24:50.332Z,6.09
2022-11-29T11:25:50.347Z,6.03
2022-11-29T11:26:50.309Z,6.08
2022-11-29T11:27:50.302Z,6.11
2022-11-29T11:28:50.305Z,6.06
2022-11-29T11:29:50.292Z,6.09
2022-11-29T11:30:50.313Z,6.15
2022-11-29T11:31:50.279Z,6.14
2022-11-29T11:32:50.260Z,6.14
2022-11-29T11:33:50.261Z,6.11
2022-11-29T11:34:50.221Z,6.12
2022-11-29T11:35:50.206Z,6.18
2022-11-29T11:36:50.211Z,6.28
2022-11-29T11:37:50.185Z,6.21
2022-11-29T11:38:50.177Z,6.21
2022-11-29T11:39:50.201Z,6.12
2022-11-29T11:40:53.647Z,6.12
2022-11-29T11:41:51.190Z,6.15
2022-11-29T11:42:50.142Z,6.14
2022-11-29T11:43:50.119Z,6.14
2022-11-29T11:44:50.132Z,6.12
2022-11-29T11:45:50.202Z,6.12
2022-11-29T11:46:50.107Z,6.12
2022-11-29T11:47:50.104Z,6.14
2022-11-29T11:48:50.081Z,6.09
2022-11-29T11:49:50.049Z,6.06
2022-11-29T11:50:50.039Z,6.14
2022-11-29T11:51:50.032Z,6.08
2022-11-29T11:52:50.956Z,6.11
2022-11-29T11:53:50.013Z,6.09
2022-11-29T11:54:50.041Z,6.06
2022-11-29T11:55:49.982Z,6.03
2022-11-29T11:56:49.971Z,6.12
2022-11-29T11:57:49.980Z,5.97
2022-11-29T11:58:49.955Z,5.97
2022-11-29T11:59:49.952Z,5.93
2022-11-29T12:01:06.062Z,5.90
2022-11-29T12:01:50.925Z,5.93
2022-11-29T12:02:50.000Z,5.96
2022-11-29T12:03:49.926Z,5.96
2022-11-29T12:04:49.914Z,5.93
2022-11-29T12:05:49.901Z,5.99
2022-11-29T12:06:49.858Z,5.91
2022-11-29T12:08:14.272Z,5.96
2022-11-29T12:08:50.920Z,5.91
2022-11-29T12:09:49.827Z,5.99
2022-11-29T12:10:49.834Z,6.14
2022-11-29T12:11:49.833Z,6.15
2022-11-29T12:12:49.792Z,6.09
2022-11-29T12:13:49.779Z,6.11
2022-11-29T12:14:49.800Z,6.12
2022-11-29T12:15:49.839Z,6.09
2022-11-29T12:16:49.774Z,6.18
2022-11-29T12:17:49.747Z,6.01
2022-11-29T12:18:49.724Z,6.14
2022-11-29T12:19:49.714Z,6.11
2022-11-29T12:20:49.736Z,6.12
2022-11-29T12:21:49.717Z,6.11
2022-11-29T12:22:49.677Z,6.11
2022-11-29T12:23:49.667Z,6.06
2022-11-29T12:24:49.665Z,6.09
2022-11-29T12:25:49.684Z,6.08
2022-11-29T12:26:56.932Z,6.15
2022-11-29T12:27:50.624Z,6.11
2022-11-29T12:28:49.645Z,6.21
2022-11-29T12:29:49.599Z,6.21
2022-11-29T12:30:49.613Z,6.14
2022-11-29T12:31:49.605Z,6.12
2022-11-29T12:32:49.578Z,6.14
2022-11-29T12:33:49.573Z,6.17
2022-11-29T12:34:49.696Z,6.14
2022-11-29T12:35:49.538Z,6.14
2022-11-29T12:36:49.549Z,6.09
2022-11-29T12:37:49.535Z,6.17
2022-11-29T12:38:49.504Z,6.12
2022-11-29T12:39:49.489Z,6.15
2022-11-29T12:40:50.173Z,6.12
2022-11-29T12:41:53.838Z,6.19
2022-11-29T12:42:49.478Z,6.18
2022-11-29T12:43:49.454Z,6.19
2022-11-29T12:44:49.456Z,6.14
2022-11-29T12:45:49.419Z,6.15
2022-11-29T12:46:54.396Z,6.11
2022-11-29T12:47:52.067Z,6.08
2022-11-29T12:48:49.393Z,6.08
2022-11-29T12:49:49.423Z,6.11
2022-11-29T12:50:49.364Z,6.15
2022-11-29T12:51:49.350Z,6.12
2022-11-29T12:52:49.371Z,6.12
2022-11-29T12:53:49.345Z,6.12
2022-11-29T12:54:49.335Z,6.04
2022-11-29T12:55:49.329Z,6.14
2022-11-29T12:56:49.296Z,6.08
2022-11-29T12:57:49.283Z,6.14
2022-11-29T12:58:49.274Z,6.06
2022-11-29T12:59:49.287Z,6.14
2022-11-29T13:00:49.301Z,6.14
2022-11-29T13:01:49.362Z,6.18
2022-11-29T13:02:49.279Z,6.21
2022-11-29T13:03:50.137Z,6.12
2022-11-29T13:04:49.362Z,6.15
2022-11-29T13:05:49.220Z,6.17
2022-11-29T13:06:49.253Z,6.18
2022-11-29T13:07:49.258Z,6.17
2022-11-29T13:08:49.251Z,6.28
2022-11-29T13:09:50.145Z,6.19
2022-11-29T13:10:49.187Z,6.15
2022-11-29T13:11:49.244Z,6.19
2022-11-29T13:12:49.653Z,6.17
2022-11-29T13:13:49.104Z,6.25
2022-11-29T13:14:49.266Z,6.19
2022-11-29T13:15:49.849Z,6.22
2022-11-29T13:16:49.136Z,6.22
2022-11-29T13:17:49.075Z,6.27
2022-11-29T13:18:49.070Z,6.27